sensor_id;sensor_type;location;lat;lon;timestamp;pressure;altitude;pressure_sealevel;temperature;humidity
62011;BME280;47967;51.756;10.174;2023-03-04T05:01:50;100205.63;;;3.42;78.07
62011;BME280;47967;51.756;10.174;2023-03-04T05:05:53;100206.88;;;3.47;77.87
62011;BME280;47967;51.756;10.174;2023-03-04T05:09:56;100205.75;;;3.50;77.87
62011;BME280;47967;51.756;10.174;2023-03-04T05:13:58;100204.78;;;3.51;77.84
62011;BME280;47967;51.756;10.174;2023-03-04T05:18:02;100203.06;;;3.60;77.72
62011;BME280;47967;51.756;10.174;2023-03-04T05:22:05;100210.66;;;3.64;77.64
62011;BME280;47967;51.756;10.174;2023-03-04T05:26:10;100201.94;;;3.62;77.49
62011;BME280;47967;51.756;10.174;2023-03-04T05:30:14;100198.41;;;3.72;77.71
62011;BME280;47967;51.756;10.174;2023-03-04T05:34:18;100196.41;;;3.83;76.97
62011;BME280;47967;51.756;10.174;2023-03-04T05:38:21;100187.50;;;3.93;77.26
62011;BME280;47967;51.756;10.174;2023-03-04T05:42:24;100181.06;;;3.85;77.23
62011;BME280;47967;51.756;10.174;2023-03-04T05:46:26;100186.28;;;3.87;77.28
62011;BME280;47967;51.756;10.174;2023-03-04T05:50:30;100189.91;;;3.96;76.77
62011;BME280;47967;51.756;10.174;2023-03-04T05:54:33;100185.56;;;3.95;76.72
62011;BME280;47967;51.756;10.174;2023-03-04T05:58:36;100193.00;;;3.91;76.85
62011;BME280;47967;51.756;10.174;2023-03-04T06:02:39;100190.63;;;3.88;76.97
62011;BME280;47967;51.756;10.174;2023-03-04T06:06:43;100192.72;;;3.94;76.87
62011;BME280;47967;51.756;10.174;2023-03-04T06:10:46;100190.94;;;3.85;77.48
62011;BME280;47967;51.756;10.174;2023-03-04T06:14:49;100195.13;;;3.88;78.02
62011;BME280;47967;51.756;10.174;2023-03-04T06:18:52;100191.31;;;3.90;77.90
62011;BME280;47967;51.756;10.174;2023-03-04T06:22:56;100210.56;;;3.94;77.80
62011;BME280;47967;51.756;10.174;2023-03-04T06:26:59;100197.56;;;4.09;77.75
62011;BME280;47967;51.756;10.174;2023-03-04T06:31:01;100205.88;;;4.06;77.59
62011;BME280;47967;51.756;10.174;2023-03-04T06:35:05;100200.69;;;4.04;77.73
62011;BME280;47967;51.756;10.174;2023-03-04T06:39:09;100210.75;;;4.20;77.83
62011;BME280;47967;51.756;10.174;2023-03-04T06:43:11;100211.38;;;4.04;77.97
62011;BME280;47967;51.756;10.174;2023-03-04T06:47:14;100212.50;;;4.01;78.54
62011;BME280;47967;51.756;10.174;2023-03-04T06:51:19;100217.41;;;4.06;78.60
62011;BME280;47967;51.756;10.174;2023-03-04T06:55:23;100203.59;;;4.11;78.41
62011;BME280;47967;51.756;10.174;2023-03-04T06:59:25;100208.34;;;4.17;78.39
62011;BME280;47967;51.756;10.174;2023-03-04T07:03:28;100196.34;;;4.31;78.23
62011;BME280;47967;51.756;10.174;2023-03-04T07:07:30;100202.91;;;4.37;77.98
62011;BME280;47967;51.756;10.174;2023-03-04T07:11:34;100207.28;;;4.38;77.65
62011;BME280;47967;51.756;10.174;2023-03-04T07:15:37;100199.16;;;4.29;78.00
62011;BME280;47967;51.756;10.174;2023-03-04T07:19:39;100201.44;;;4.24;77.79
62011;BME280;47967;51.756;10.174;2023-03-04T07:23:42;100195.22;;;4.33;78.07
62011;BME280;47967;51.756;10.174;2023-03-04T07:27:46;100195.50;;;4.30;78.39
62011;BME280;47967;51.756;10.174;2023-03-04T07:31:49;100204.88;;;4.44;78.50
62011;BME280;47967;51.756;10.174;2023-03-04T07:35:58;100207.13;;;4.39;77.98
62011;BME280;47967;51.756;10.174;2023-03-04T07:40:00;100195.25;;;4.70;77.43
62011;BME280;47967;51.756;10.174;2023-03-04T07:44:07;100202.06;;;4.82;77.97
62011;BME280;47967;51.756;10.174;2023-03-04T07:48:13;100207.97;;;5.04;77.46
62011;BME280;47967;51.756;10.174;2023-03-04T07:52:15;100199.31;;;5.10;77.05
62011;BME280;47967;51.756;10.174;2023-03-04T07:56:20;100197.97;;;5.06;76.49
62011;BME280;47967;51.756;10.174;2023-03-04T08:00:24;100194.50;;;4.95;77.42
62011;BME280;47967;51.756;10.174;2023-03-04T08:04:27;100192.00;;;5.12;77.13
62011;BME280;47967;51.756;10.174;2023-03-04T08:08:29;100195.81;;;5.09;76.75
62011;BME280;47967;51.756;10.174;2023-03-04T08:12:33;100191.91;;;5.22;76.28
62011;BME280;47967;51.756;10.174;2023-03-04T08:16:37;100188.16;;;5.15;76.56
62011;BME280;47967;51.756;10.174;2023-03-04T08:20:40;100192.72;;;5.22;76.25
62011;BME280;47967;51.756;10.174;2023-03-04T08:24:44;100187.78;;;5.27;75.63
62011;BME280;47967;51.756;10.174;2023-03-04T08:28:47;100198.16;;;5.31;76.22
62011;BME280;47967;51.756;10.174;2023-03-04T08:32:51;100204.75;;;5.18;76.24
62011;BME280;47967;51.756;10.174;2023-03-04T08:36:54;100196.97;;;5.07;77.29
62011;BME280;47967;51.756;10.174;2023-03-04T08:40:57;100192.53;;;4.97;78.37
62011;BME280;47967;51.756;10.174;2023-03-04T08:44:59;100204.91;;;4.99;78.45
62011;BME280;47967;51.756;10.174;2023-03-04T08:49:03;100204.59;;;4.84;78.56
62011;BME280;47967;51.756;10.174;2023-03-04T08:53:06;100199.19;;;5.11;79.09
62011;BME280;47967;51.756;10.174;2023-03-04T08:57:09;100197.09;;;5.05;78.57
62011;BME280;47967;51.756;10.174;2023-03-04T09:01:13;100199.63;;;5.25;77.99
62011;BME280;47967;51.756;10.174;2023-03-04T09:05:17;100190.03;;;5.40;78.03
62011;BME280;47967;51.756;10.174;2023-03-04T09:09:20;100190.63;;;5.08;78.57
62011;BME280;47967;51.756;10.174;2023-03-04T09:13:24;100189.47;;;4.92;79.95
62011;BME280;47967;51.756;10.174;2023-03-04T09:17:27;100184.50;;;5.16;80.37
62011;BME280;47967;51.756;10.174;2023-03-04T09:21:30;100182.19;;;5.65;79.38
62011;BME280;47967;51.756;10.174;2023-03-04T09:25:33;100180.41;;;5.29;79.19
62011;BME280;47967;51.756;10.174;2023-03-04T09:29:35;100174.31;;;5.64;79.69
62011;BME280;47967;51.756;10.174;2023-03-04T09:33:38;100182.50;;;5.97;78.65
62011;BME280;47967;51.756;10.174;2023-03-04T09:37:44;100174.66;;;5.95;78.34
62011;BME280;47967;51.756;10.174;2023-03-04T09:41:50;100168.78;;;6.26;78.25
62011;BME280;47967;51.756;10.174;2023-03-04T09:45:59;100162.16;;;6.38;76.16
62011;BME280;47967;51.756;10.174;2023-03-04T09:50:05;100167.78;;;6.27;76.40
62011;BME280;47967;51.756;10.174;2023-03-04T09:54:15;100168.19;;;6.49;76.03
62011;BME280;47967;51.756;10.174;2023-03-04T09:58:27;100173.81;;;6.29;75.75
62011;BME280;47967;51.756;10.174;2023-03-04T10:02:44;100160.84;;;6.08;76.12
62011;BME280;47967;51.756;10.174;2023-03-04T10:06:47;100147.84;;;6.21;76.22
62011;BME280;47967;51.756;10.174;2023-03-04T10:10:57;100162.09;;;5.96;76.29
62011;BME280;47967;51.756;10.174;2023-03-04T10:15:03;100157.97;;;6.01;77.01
62011;BME280;47967;51.756;10.174;2023-03-04T10:19:20;100157.81;;;6.03;76.56
62011;BME280;47967;51.756;10.174;2023-03-04T10:23:27;100164.19;;;6.02;76.05
62011;BME280;47967;51.756;10.174;2023-03-04T10:27:31;100171.44;;;6.26;75.94
62011;BME280;47967;51.756;10.174;2023-03-04T10:31:35;100158.34;;;6.15;76.66
62011;BME280;47967;51.756;10.174;2023-03-04T10:35:38;100164.50;;;5.99;77.31
62011;BME280;47967;51.756;10.174;2023-03-04T10:39:46;100165.84;;;5.76;78.18
62011;BME280;47967;51.756;10.174;2023-03-04T10:44:01;100163.25;;;5.93;77.85
62011;BME280;47967;51.756;10.174;2023-03-04T10:48:05;100165.41;;;6.16;77.17
62011;BME280;47967;51.756;10.174;2023-03-04T10:52:17;100165.09;;;5.92;76.65
62011;BME280;47967;51.756;10.174;2023-03-04T10:56:31;100150.00;;;6.18;76.27
62011;BME280;47967;51.756;10.174;2023-03-04T11:00:36;100149.38;;;6.24;75.70
62011;BME280;47967;51.756;10.174;2023-03-04T11:04:39;100151.66;;;6.11;75.23
62011;BME280;47967;51.756;10.174;2023-03-04T11:08:42;100157.84;;;6.11;74.75
62011;BME280;47967;51.756;10.174;2023-03-04T11:12:49;100155.63;;;6.06;73.16
62011;BME280;47967;51.756;10.174;2023-03-04T11:16:56;100158.25;;;6.33;73.04
62011;BME280;47967;51.756;10.174;2023-03-04T11:20:59;100166.47;;;6.31;73.54
62011;BME280;47967;51.756;10.174;2023-03-04T11:25:05;100159.34;;;6.14;73.42
62011;BME280;47967;51.756;10.174;2023-03-04T11:29:13;100154.00;;;6.14;71.62
62011;BME280;47967;51.756;10.174;2023-03-04T11:33:25;100151.50;;;6.12;71.05
62011;BME280;47967;51.756;10.174;2023-03-04T11:37:33;100165.63;;;5.96;71.04
62011;BME280;47967;51.756;10.174;2023-03-04T11:41:38;100149.03;;;5.92;71.19
62011;BME280;47967;51.756;10.174;2023-03-04T11:46:21;100161.94;;;5.97;71.19
62011;BME280;47967;51.756;10.174;2023-03-04T11:50:37;100142.81;;;6.18;71.06
62011;BME280;47967;51.756;10.174;2023-03-04T11:55:12;100133.78;;;6.19;71.14
62011;BME280;47967;51.756;10.174;2023-03-04T11:59:32;100115.34;;;6.24;71.19
62011;BME280;47967;51.756;10.174;2023-03-04T12:03:52;100131.81;;;6.38;71.15
62011;BME280;47967;51.756;10.174;2023-03-04T12:08:20;100118.56;;;6.28;71.23
62011;BME280;47967;51.756;10.174;2023-03-04T12:12:39;100118.00;;;6.16;71.96
62011;BME280;47967;51.756;10.174;2023-03-04T12:17:05;100106.00;;;6.29;72.17
62011;BME280;47967;51.756;10.174;2023-03-04T12:21:19;100102.78;;;6.17;72.07
62011;BME280;47967;51.756;10.174;2023-03-04T12:25:41;100099.63;;;6.21;72.14
62011;BME280;47967;51.756;10.174;2023-03-04T12:29:49;100089.03;;;6.20;72.22
62011;BME280;47967;51.756;10.174;2023-03-04T12:38:28;100087.25;;;6.37;73.20
62011;BME280;47967;51.756;10.174;2023-03-04T12:42:46;100079.06;;;6.38;73.83
62011;BME280;47967;51.756;10.174;2023-03-04T12:47:09;100075.16;;;6.24;73.91
62011;BME280;47967;51.756;10.174;2023-03-04T12:51:27;100066.81;;;6.44;74.29
62011;BME280;47967;51.756;10.174;2023-03-04T12:55:36;100069.00;;;6.40;74.63
62011;BME280;47967;51.756;10.174;2023-03-04T12:59:43;100042.03;;;6.59;75.07
62011;BME280;47967;51.756;10.174;2023-03-04T13:03:59;100047.75;;;6.88;73.66
62011;BME280;47967;51.756;10.174;2023-03-04T13:08:12;100030.50;;;7.47;71.79
62011;BME280;47967;51.756;10.174;2023-03-04T13:12:19;100033.03;;;7.89;69.64
62011;BME280;47967;51.756;10.174;2023-03-04T13:16:39;100037.91;;;7.85;68.92
62011;BME280;47967;51.756;10.174;2023-03-04T13:20:42;100060.44;;;7.28;68.78
62011;BME280;47967;51.756;10.174;2023-03-04T13:24:45;100043.38;;;6.87;71.04
62011;BME280;47967;51.756;10.174;2023-03-04T13:28:52;100061.78;;;6.33;74.39
62011;BME280;47967;51.756;10.174;2023-03-04T13:32:56;100071.00;;;5.79;76.46
62011;BME280;47967;51.756;10.174;2023-03-04T13:36:59;100074.75;;;5.25;78.14
62011;BME280;47967;51.756;10.174;2023-03-04T13:41:11;100054.16;;;5.52;76.94
62011;BME280;47967;51.756;10.174;2023-03-04T13:45:33;100066.59;;;5.70;75.61
62011;BME280;47967;51.756;10.174;2023-03-04T13:49:37;100071.81;;;5.80;75.81
62011;BME280;47967;51.756;10.174;2023-03-04T13:53:42;100059.31;;;5.97;75.61
62011;BME280;47967;51.756;10.174;2023-03-04T13:57:48;100056.06;;;6.19;74.46
62011;BME280;47967;51.756;10.174;2023-03-04T14:01:56;100046.06;;;6.54;73.71
62011;BME280;47967;51.756;10.174;2023-03-04T14:06:16;100039.50;;;6.32;72.05
62011;BME280;47967;51.756;10.174;2023-03-04T14:10:22;100033.66;;;6.78;70.98
62011;BME280;47967;51.756;10.174;2023-03-04T14:14:26;100030.47;;;6.75;69.22
62011;BME280;47967;51.756;10.174;2023-03-04T14:18:30;100020.06;;;6.88;67.54
62011;BME280;47967;51.756;10.174;2023-03-04T14:22:38;100028.47;;;6.60;68.09
62011;BME280;47967;51.756;10.174;2023-03-04T14:26:41;100028.47;;;6.35;68.16
62011;BME280;47967;51.756;10.174;2023-03-04T14:30:50;100031.50;;;6.65;68.61
62011;BME280;47967;51.756;10.174;2023-03-04T14:34:56;100022.78;;;6.63;68.59
62011;BME280;47967;51.756;10.174;2023-03-04T14:39:03;100016.72;;;6.86;68.08
62011;BME280;47967;51.756;10.174;2023-03-04T14:43:11;100007.19;;;6.67;67.73
62011;BME280;47967;51.756;10.174;2023-03-04T14:47:18;100026.28;;;6.31;69.07
62011;BME280;47967;51.756;10.174;2023-03-04T14:51:29;100023.59;;;6.14;69.74
62011;BME280;47967;51.756;10.174;2023-03-04T14:55:33;100021.00;;;5.96;71.34
62011;BME280;47967;51.756;10.174;2023-03-04T14:59:36;100015.63;;;5.88;68.95
62011;BME280;47967;51.756;10.174;2023-03-04T15:03:39;100018.00;;;5.48;69.06
62011;BME280;47967;51.756;10.174;2023-03-04T15:07:49;100013.84;;;5.54;68.01
62011;BME280;47967;51.756;10.174;2023-03-04T15:11:58;100009.06;;;5.82;67.22
62011;BME280;47967;51.756;10.174;2023-03-04T15:16:02;100018.56;;;5.68;67.52
62011;BME280;47967;51.756;10.174;2023-03-04T15:20:20;100015.66;;;5.96;67.78
62011;BME280;47967;51.756;10.174;2023-03-04T15:24:23;100034.84;;;5.83;67.91
62011;BME280;47967;51.756;10.174;2023-03-04T15:28:30;100028.03;;;5.46;71.54
62011;BME280;47967;51.756;10.174;2023-03-04T15:32:34;100015.59;;;5.37;73.81
62011;BME280;47967;51.756;10.174;2023-03-04T15:36:37;100014.94;;;5.35;73.92
62011;BME280;47967;51.756;10.174;2023-03-04T15:40:41;100005.41;;;5.40;72.01
62011;BME280;47967;51.756;10.174;2023-03-04T15:44:45;100003.47;;;5.51;69.71
62011;BME280;47967;51.756;10.174;2023-03-04T15:48:48;100003.25;;;5.44;69.02
62011;BME280;47967;51.756;10.174;2023-03-04T15:52:52;100003.59;;;5.49;67.78
62011;BME280;47967;51.756;10.174;2023-03-04T15:56:57;100011.44;;;5.42;66.90
62011;BME280;47967;51.756;10.174;2023-03-04T16:01:02;100001.22;;;5.38;66.38
62011;BME280;47967;51.756;10.174;2023-03-04T16:05:05;100006.09;;;5.42;65.66
62011;BME280;47967;51.756;10.174;2023-03-04T16:09:10;100006.78;;;5.44;65.82
62011;BME280;47967;51.756;10.174;2023-03-04T16:13:16;100011.94;;;5.38;64.63
62011;BME280;47967;51.756;10.174;2023-03-04T16:17:20;100006.28;;;5.49;65.41
62011;BME280;47967;51.756;10.174;2023-03-04T16:21:23;99999.28;;;5.48;64.84
62011;BME280;47967;51.756;10.174;2023-03-04T16:25:26;100016.28;;;5.39;64.67
62011;BME280;47967;51.756;10.174;2023-03-04T16:29:29;100011.94;;;5.38;65.13
62011;BME280;47967;51.756;10.174;2023-03-04T16:33:33;100011.19;;;5.19;64.97
62011;BME280;47967;51.756;10.174;2023-03-04T16:37:36;100022.19;;;5.16;66.25
62011;BME280;47967;51.756;10.174;2023-03-04T16:41:38;100019.19;;;4.93;68.32
62011;BME280;47967;51.756;10.174;2023-03-04T16:45:41;100043.09;;;4.32;73.54
62011;BME280;47967;51.756;10.174;2023-03-04T16:49:46;100036.25;;;4.11;77.20
62011;BME280;47967;51.756;10.174;2023-03-04T16:53:51;100032.56;;;3.94;78.70
62011;BME280;47967;51.756;10.174;2023-03-04T16:57:55;100032.66;;;3.75;79.58
62011;BME280;47967;51.756;10.174;2023-03-04T17:01:58;100030.63;;;3.87;80.84
62011;BME280;47967;51.756;10.174;2023-03-04T17:06:02;100033.84;;;3.90;80.83
62011;BME280;47967;51.756;10.174;2023-03-04T17:10:05;100027.06;;;3.96;81.10
62011;BME280;47967;51.756;10.174;2023-03-04T17:14:07;100012.75;;;3.97;80.84
62011;BME280;47967;51.756;10.174;2023-03-04T17:18:10;100030.94;;;4.01;80.29
62011;BME280;47967;51.756;10.174;2023-03-04T17:22:14;100027.09;;;4.14;79.14
62011;BME280;47967;51.756;10.174;2023-03-04T17:26:16;100034.56;;;4.10;78.53
62011;BME280;47967;51.756;10.174;2023-03-04T17:30:21;100033.63;;;4.20;78.47
62011;BME280;47967;51.756;10.174;2023-03-04T17:34:24;100032.09;;;4.17;78.16
62011;BME280;47967;51.756;10.174;2023-03-04T17:38:28;100026.69;;;4.27;77.28
62011;BME280;47967;51.756;10.174;2023-03-04T17:42:31;100025.94;;;4.35;78.47
62011;BME280;47967;51.756;10.174;2023-03-04T17:46:34;100025.72;;;4.28;77.80
62011;BME280;47967;51.756;10.174;2023-03-04T17:50:36;100028.63;;;4.16;77.66
62011;BME280;47967;51.756;10.174;2023-03-04T17:54:40;100038.84;;;4.21;77.13
62011;BME280;47967;51.756;10.174;2023-03-04T17:58:43;100035.31;;;4.21;77.28
62011;BME280;47967;51.756;10.174;2023-03-04T18:02:46;100044.25;;;4.11;76.66
62011;BME280;47967;51.756;10.174;2023-03-04T18:06:49;100036.31;;;4.20;75.92
62011;BME280;47967;51.756;10.174;2023-03-04T18:10:53;100035.16;;;4.22;75.22
62011;BME280;47967;51.756;10.174;2023-03-04T18:14:55;100037.06;;;4.12;74.47
62011;BME280;47967;51.756;10.174;2023-03-04T18:18:59;100037.00;;;4.22;74.25
62011;BME280;47967;51.756;10.174;2023-03-04T18:23:03;100047.69;;;4.22;73.20
62011;BME280;47967;51.756;10.174;2023-03-04T18:27:18;100046.25;;;4.27;73.01
62011;BME280;47967;51.756;10.174;2023-03-04T18:31:22;100040.66;;;4.21;72.99
62011;BME280;47967;51.756;10.174;2023-03-04T18:35:25;100052.41;;;4.10;72.88
62011;BME280;47967;51.756;10.174;2023-03-04T18:39:28;100044.09;;;4.13;72.64
62011;BME280;47967;51.756;10.174;2023-03-04T18:43:32;100037.53;;;4.07;72.85
62011;BME280;47967;51.756;10.174;2023-03-04T18:47:35;100028.16;;;4.21;72.27
62011;BME280;47967;51.756;10.174;2023-03-04T18:51:37;100033.41;;;4.13;71.59
62011;BME280;47967;51.756;10.174;2023-03-04T18:55:40;100031.13;;;4.18;71.81
62011;BME280;47967;51.756;10.174;2023-03-04T18:59:46;100035.22;;;4.12;70.61
62011;BME280;47967;51.756;10.174;2023-03-04T19:03:51;100040.19;;;4.07;70.24
62011;BME280;47967;51.756;10.174;2023-03-04T19:07:56;100034.03;;;4.07;69.85
62011;BME280;47967;51.756;10.174;2023-03-04T19:11:58;100046.47;;;3.98;69.26
62011;BME280;47967;51.756;10.174;2023-03-04T19:16:04;100030.81;;;4.03;69.32
62011;BME280;47967;51.756;10.174;2023-03-04T19:20:08;100041.84;;;3.90;69.07
62011;BME280;47967;51.756;10.174;2023-03-04T19:24:11;100043.38;;;3.93;69.29
62011;BME280;47967;51.756;10.174;2023-03-04T19:28:13;100044.13;;;3.85;69.62
62011;BME280;47967;51.756;10.174;2023-03-04T19:32:17;100046.66;;;3.87;69.38
62011;BME280;47967;51.756;10.174;2023-03-04T19:36:20;100038.78;;;3.85;69.74
62011;BME280;47967;51.756;10.174;2023-03-04T19:40:22;100051.97;;;3.87;68.96
62011;BME280;47967;51.756;10.174;2023-03-04T19:44:28;100048.38;;;3.78;69.65
62011;BME280;47967;51.756;10.174;2023-03-04T19:48:32;100046.09;;;3.83;69.60
62011;BME280;47967;51.756;10.174;2023-03-04T19:52:35;100039.22;;;3.80;69.50
62011;BME280;47967;51.756;10.174;2023-03-04T19:56:38;100035.88;;;3.78;69.75
62011;BME280;47967;51.756;10.174;2023-03-04T20:00:40;100048.66;;;3.75;70.14
62011;BME280;47967;51.756;10.174;2023-03-04T20:04:44;100045.50;;;3.71;69.75
62011;BME280;47967;51.756;10.174;2023-03-04T20:08:47;100034.28;;;3.67;70.63
62011;BME280;47967;51.756;10.174;2023-03-04T20:12:50;100049.72;;;3.64;70.77
62011;BME280;47967;51.756;10.174;2023-03-04T20:16:56;100050.59;;;3.55;70.29
62011;BME280;47967;51.756;10.174;2023-03-04T20:21:02;100043.16;;;3.58;70.53
62011;BME280;47967;51.756;10.174;2023-03-04T20:25:05;100046.38;;;3.62;70.67
62011;BME280;47967;51.756;10.174;2023-03-04T20:29:08;100055.66;;;3.58;71.74
62011;BME280;47967;51.756;10.174;2023-03-04T20:33:11;100060.63;;;3.43;71.97
62011;BME280;47967;51.756;10.174;2023-03-04T20:37:15;100056.25;;;3.42;72.81
62011;BME280;47967;51.756;10.174;2023-03-04T20:41:17;100077.00;;;3.20;74.63
62011;BME280;47967;51.756;10.174;2023-03-04T20:45:20;100072.50;;;3.11;76.24
62011;BME280;47967;51.756;10.174;2023-03-04T20:49:26;100073.94;;;2.85;76.82
62011;BME280;47967;51.756;10.174;2023-03-04T20:53:30;100068.88;;;3.12;77.33
62011;BME280;47967;51.756;10.174;2023-03-04T20:57:33;100082.06;;;3.03;76.87
62011;BME280;47967;51.756;10.174;2023-03-04T21:01:37;100075.78;;;2.95;77.25
62011;BME280;47967;51.756;10.174;2023-03-04T21:05:39;100071.41;;;2.94;77.84
62011;BME280;47967;51.756;10.174;2023-03-04T21:09:43;100069.63;;;2.94;76.91
62011;BME280;47967;51.756;10.174;2023-03-04T21:13:48;100072.25;;;2.84;78.23
62011;BME280;47967;51.756;10.174;2023-03-04T21:17:54;100064.19;;;2.66;79.67
62011;BME280;47967;51.756;10.174;2023-03-04T21:21:57;100067.69;;;2.37;82.18
62011;BME280;47967;51.756;10.174;2023-03-04T21:26:01;100077.59;;;2.26;82.64
62011;BME280;47967;51.756;10.174;2023-03-04T21:30:05;100058.16;;;2.35;82.11
62011;BME280;47967;51.756;10.174;2023-03-04T21:34:13;100057.44;;;2.52;80.31
62011;BME280;47967;51.756;10.174;2023-03-04T21:38:16;100044.66;;;2.66;79.64
62011;BME280;47967;51.756;10.174;2023-03-04T21:42:20;100049.31;;;2.64;79.03
62011;BME280;47967;51.756;10.174;2023-03-04T21:46:23;100044.09;;;2.72;79.08
62011;BME280;47967;51.756;10.174;2023-03-04T21:50:25;100036.44;;;2.49;79.10
62011;BME280;47967;51.756;10.174;2023-03-04T21:54:28;100046.22;;;2.59;78.98
62011;BME280;47967;51.756;10.174;2023-03-04T21:58:32;100045.97;;;2.52;78.53
